Lindy Lake, New Jersey
Current Conditions -  °F | °C
As of 10:53 AM on Thursday 29 Jan 2015 (Local Time) from KCDW Reporting Station
Clear Clear  
Wind Chill: 25°   Ceiling: Unl
Heat Index: 25°   Visibility: 10mi
Dew Point: -1°   Wind: 0mph
Humidity: 33%   Direction: NA
Pressure: 30.31"   Gusts: NA
Location:  40.9863°N, 74.383°W
Report Text: KCDW 291553Z AUTO 00000KT 10SM CLR M04/M18 A3031 RMK AO2 SLP271 T10391183 TSNO
Loading
Personal Weather Stations






























Interactive Weather Map New forecast layout! Learn more

10-Day Weather Forecast

Advertisements
Track Severe Weather on mobile